createdAt,value
2023-04-09T00:00:59.198Z,14.36
2023-04-09T00:01:59.214Z,14.36
2023-04-09T00:02:59.310Z,14.36
2023-04-09T00:03:59.302Z,14.45
2023-04-09T00:04:59.184Z,14.36
2023-04-09T00:05:59.179Z,14.36
2023-04-09T00:06:59.183Z,14.45
2023-04-09T00:07:59.194Z,14.36
2023-04-09T00:08:59.180Z,14.36
2023-04-09T00:09:59.173Z,14.36
2023-04-09T00:10:59.183Z,14.36
2023-04-09T00:11:59.178Z,14.36
2023-04-09T00:12:59.181Z,14.36
2023-04-09T00:13:59.174Z,14.45
2023-04-09T00:14:59.181Z,14.36
2023-04-09T00:15:59.188Z,14.36
2023-04-09T00:16:59.177Z,14.36
2023-04-09T00:17:59.359Z,14.36
2023-04-09T00:18:59.176Z,14.45
2023-04-09T00:19:59.168Z,14.36
2023-04-09T00:20:59.197Z,14.36
2023-04-09T00:21:59.174Z,14.45
2023-04-09T00:22:59.173Z,14.36
2023-04-09T00:23:59.198Z,14.36
2023-04-09T00:24:59.182Z,14.36
2023-04-09T00:25:59.165Z,14.36
2023-04-09T00:26:59.175Z,14.36
2023-04-09T00:27:59.178Z,14.36
2023-04-09T00:28:59.172Z,14.36
2023-04-09T00:29:59.166Z,14.26
2023-04-09T00:30:59.172Z,14.26
2023-04-09T00:31:59.215Z,14.45
2023-04-09T00:32:59.240Z,14.36
2023-04-09T00:33:59.163Z,14.45
2023-04-09T00:34:59.177Z,14.45
2023-04-09T00:35:59.180Z,14.36
2023-04-09T00:36:59.171Z,14.36
2023-04-09T00:37:59.161Z,14.36
2023-04-09T00:38:59.182Z,14.36
2023-04-09T00:39:59.339Z,14.26
2023-04-09T00:40:59.187Z,14.36
2023-04-09T00:41:59.173Z,14.36
2023-04-09T00:42:59.179Z,14.36
2023-04-09T00:43:59.163Z,14.36
2023-04-09T00:44:59.166Z,14.36
2023-04-09T00:45:59.209Z,14.45
2023-04-09T00:46:59.170Z,14.36
2023-04-09T00:47:59.236Z,14.36
2023-04-09T00:48:59.166Z,14.26
2023-04-09T00:49:59.156Z,14.36
2023-04-09T00:50:59.163Z,14.36
2023-04-09T00:51:59.154Z,14.36
2023-04-09T00:52:59.162Z,14.26
2023-04-09T00:53:59.172Z,14.26
2023-04-09T00:54:59.163Z,14.45
2023-04-09T00:55:59.179Z,14.36
2023-04-09T00:56:59.167Z,14.26
2023-04-09T00:57:59.155Z,14.26
2023-04-09T00:58:59.160Z,14.36
2023-04-09T00:59:59.155Z,14.36
2023-04-09T01:00:59.178Z,14.26
2023-04-09T01:01:59.202Z,14.36
2023-04-09T01:02:59.241Z,14.36
2023-04-09T01:03:59.163Z,14.36
2023-04-09T01:04:59.152Z,14.36
2023-04-09T01:05:59.159Z,14.45
2023-04-09T01:06:59.149Z,14.36
2023-04-09T01:07:59.153Z,14.36
2023-04-09T01:08:59.157Z,14.45
2023-04-09T01:09:59.152Z,14.26
2023-04-09T01:10:59.145Z,14.45
2023-04-09T01:11:59.175Z,14.45
2023-04-09T01:12:59.146Z,14.26
2023-04-09T01:13:59.157Z,14.45
2023-04-09T01:14:59.141Z,14.45
2023-04-09T01:15:59.163Z,14.26
2023-04-09T01:16:59.189Z,14.45
2023-04-09T01:17:59.201Z,14.36
2023-04-09T01:18:59.139Z,14.36
2023-04-09T01:19:59.149Z,14.36
2023-04-09T01:20:59.139Z,14.36
2023-04-09T01:21:59.145Z,14.26
2023-04-09T01:22:59.137Z,14.26
2023-04-09T01:23:59.151Z,14.36
2023-04-09T01:24:59.137Z,14.45
2023-04-09T01:25:59.143Z,14.36
2023-04-09T01:26:59.134Z,14.26
2023-04-09T01:27:59.177Z,14.45
2023-04-09T01:28:59.144Z,14.36
2023-04-09T01:29:59.154Z,14.45
2023-04-09T01:30:59.192Z,14.45
2023-04-09T01:31:59.141Z,14.36
2023-04-09T01:32:59.186Z,14.26
2023-04-09T01:33:59.157Z,14.36
2023-04-09T01:34:59.133Z,14.45
2023-04-09T01:35:59.169Z,14.26
2023-04-09T01:36:59.134Z,14.36
2023-04-09T01:37:59.141Z,14.36
2023-04-09T01:38:59.135Z,14.36
2023-04-09T01:39:59.142Z,14.36
2023-04-09T01:40:59.134Z,14.26
2023-04-09T01:41:59.142Z,14.36
2023-04-09T01:42:59.134Z,14.45
2023-04-09T01:43:59.160Z,14.36
2023-04-09T01:44:59.130Z,14.45
2023-04-09T01:45:59.160Z,14.26
2023-04-09T01:46:59.134Z,14.36
2023-04-09T01:47:59.149Z,14.45
2023-04-09T01:48:59.133Z,14.45
2023-04-09T01:49:59.139Z,14.36
2023-04-09T01:50:59.140Z,14.36
2023-04-09T01:51:59.134Z,14.26
2023-04-09T01:52:59.126Z,14.45
2023-04-09T01:53:59.136Z,14.36
2023-04-09T01:54:59.127Z,14.36
2023-04-09T01:55:59.137Z,14.45
2023-04-09T01:56:59.133Z,14.36
2023-04-09T01:57:59.134Z,14.26
2023-04-09T01:58:59.130Z,14.45
2023-04-09T01:59:59.155Z,14.36
2023-04-09T02:00:59.138Z,14.26
2023-04-09T02:01:59.327Z,14.36
2023-04-09T02:02:59.297Z,14.36
2023-04-09T02:03:59.214Z,14.36
2023-04-09T02:04:59.129Z,14.45
2023-04-09T02:05:59.129Z,14.36
2023-04-09T02:06:59.118Z,14.45
2023-04-09T02:07:59.129Z,14.36
2023-04-09T02:08:59.129Z,14.45
2023-04-09T02:09:59.129Z,14.36
2023-04-09T02:10:59.118Z,14.45
2023-04-09T02:11:59.127Z,14.36
2023-04-09T02:12:59.120Z,14.45
2023-04-09T02:13:59.128Z,14.26
2023-04-09T02:14:59.118Z,14.26
2023-04-09T02:15:59.294Z,14.36
2023-04-09T02:16:59.120Z,14.36
2023-04-09T02:17:59.181Z,14.36
2023-04-09T02:18:59.116Z,14.26
2023-04-09T02:19:59.126Z,14.45
2023-04-09T02:20:59.119Z,14.36
2023-04-09T02:21:59.121Z,14.36
2023-04-09T02:22:59.123Z,14.36
2023-04-09T02:23:59.126Z,14.45
2023-04-09T02:24:59.113Z,14.36
2023-04-09T02:25:59.120Z,14.26
2023-04-09T02:26:59.117Z,14.26
2023-04-09T02:27:59.120Z,14.36
2023-04-09T02:28:59.115Z,14.36
2023-04-09T02:29:59.136Z,14.45
2023-04-09T02:30:59.154Z,14.36
2023-04-09T02:31:59.145Z,14.36
2023-04-09T02:32:59.133Z,14.36
2023-04-09T02:33:59.131Z,14.45
2023-04-09T02:34:59.114Z,14.55
2023-04-09T02:35:59.192Z,14.45
2023-04-09T02:36:59.124Z,14.45
2023-04-09T02:37:59.125Z,14.45
2023-04-09T02:38:59.108Z,14.45
2023-04-09T02:39:59.125Z,14.45
2023-04-09T02:40:59.112Z,14.45
2023-04-09T02:41:59.114Z,13.97
2023-04-09T02:42:59.110Z,14.45
2023-04-09T02:43:59.114Z,14.07
2023-04-09T02:44:59.114Z,13.97
2023-04-09T02:45:59.125Z,14.07
2023-04-09T02:46:59.107Z,13.97
2023-04-09T02:47:59.144Z,14.07
2023-04-09T02:48:59.107Z,14.07
2023-04-09T02:49:59.112Z,14.07
2023-04-09T02:50:59.105Z,13.97
2023-04-09T02:51:59.111Z,13.97
2023-04-09T02:52:59.107Z,13.97
2023-04-09T02:53:59.110Z,14.07
2023-04-09T02:54:59.103Z,14.07
2023-04-09T02:55:59.109Z,13.97
2023-04-09T02:56:59.125Z,14.17
2023-04-09T02:57:59.109Z,14.07
2023-04-09T02:58:59.105Z,14.07
2023-04-09T02:59:59.108Z,13.97
2023-04-09T03:00:59.100Z,14.07
2023-04-09T03:01:59.165Z,14.07
2023-04-09T03:02:59.169Z,14.17
2023-04-09T03:03:59.184Z,13.97
2023-04-09T03:04:59.099Z,14.17
2023-04-09T03:05:59.123Z,14.07
2023-04-09T03:06:59.104Z,14.07
2023-04-09T03:07:59.109Z,14.07
2023-04-09T03:08:59.101Z,13.97
2023-04-09T03:09:59.105Z,14.07
2023-04-09T03:10:59.105Z,14.07
2023-04-09T03:11:59.105Z,14.07
2023-04-09T03:12:59.101Z,14.07
2023-04-09T03:13:59.105Z,14.07
2023-04-09T03:14:59.099Z,13.97
2023-04-09T03:15:59.135Z,14.07
2023-04-09T03:16:59.097Z,13.97
2023-04-09T03:17:59.156Z,13.97
2023-04-09T03:18:59.113Z,13.97
2023-04-09T03:19:59.122Z,14.07
2023-04-09T03:20:59.094Z,14.07
2023-04-09T03:21:59.100Z,13.97
2023-04-09T03:22:59.095Z,14.17
2023-04-09T03:23:59.101Z,13.97
2023-04-09T03:24:59.095Z,13.97
2023-04-09T03:25:59.100Z,13.97
2023-04-09T03:26:59.092Z,14.07
2023-04-09T03:27:59.101Z,13.97
2023-04-09T03:28:59.092Z,14.07
2023-04-09T03:29:59.098Z,14.07
2023-04-09T03:30:59.123Z,14.07
2023-04-09T03:31:59.103Z,14.07
2023-04-09T03:32:59.200Z,13.97
2023-04-09T03:33:59.105Z,14.07
2023-04-09T03:34:59.092Z,14.07
2023-04-09T03:35:59.160Z,14.07
2023-04-09T03:36:59.090Z,14.07
2023-04-09T03:37:59.104Z,14.07
2023-04-09T03:38:59.089Z,14.07
2023-04-09T03:39:59.098Z,14.07
2023-04-09T03:40:59.093Z,13.97
2023-04-09T03:41:59.103Z,13.97
2023-04-09T03:42:59.087Z,14.07
2023-04-09T03:43:59.111Z,13.97
2023-04-09T03:44:59.084Z,14.07
2023-04-09T03:45:59.105Z,14.07
2023-04-09T03:46:59.290Z,14.07
2023-04-09T03:47:59.121Z,14.17
2023-04-09T03:48:59.094Z,14.07
2023-04-09T03:49:59.095Z,14.07
2023-04-09T03:50:59.092Z,14.17
2023-04-09T03:51:59.127Z,14.07
2023-04-09T03:52:59.086Z,13.97
2023-04-09T03:53:59.091Z,13.97
2023-04-09T03:54:59.087Z,14.07
2023-04-09T03:55:59.086Z,14.07
2023-04-09T03:56:59.101Z,14.07
2023-04-09T03:57:59.090Z,14.07
2023-04-09T03:58:59.080Z,14.07
2023-04-09T03:59:59.094Z,14.07
2023-04-09T04:00:59.077Z,14.07
2023-04-09T04:01:59.142Z,14.17
2023-04-09T04:02:59.263Z,13.97
2023-04-09T04:03:59.120Z,14.07
2023-04-09T04:04:59.072Z,13.97
2023-04-09T04:05:59.081Z,14.07
2023-04-09T04:06:59.089Z,14.07
2023-04-09T04:07:59.111Z,14.07
2023-04-09T04:08:59.074Z,13.97
2023-04-09T04:09:59.080Z,14.07
2023-04-09T04:10:59.072Z,14.17
2023-04-09T04:11:59.105Z,14.17
2023-04-09T04:12:59.105Z,14.17
2023-04-09T04:13:59.083Z,14.07
2023-04-09T04:14:59.069Z,14.07
2023-04-09T04:15:59.124Z,14.17
2023-04-09T04:16:59.089Z,14.26
2023-04-09T04:17:59.140Z,14.17
2023-04-09T04:18:59.082Z,14.07
2023-04-09T04:19:59.075Z,14.17
2023-04-09T04:20:59.066Z,14.07
2023-04-09T04:21:59.092Z,14.17
2023-04-09T04:22:59.063Z,14.17
2023-04-09T04:23:59.097Z,14.07
2023-04-09T04:24:59.064Z,14.17
2023-04-09T04:25:59.087Z,14.07
2023-04-09T04:26:59.080Z,14.07
2023-04-09T04:27:59.074Z,14.17
2023-04-09T04:28:59.066Z,14.17
2023-04-09T04:29:59.082Z,14.17
2023-04-09T04:30:59.063Z,13.97
2023-04-09T04:31:59.143Z,14.07
2023-04-09T04:32:59.121Z,14.17
2023-04-09T04:33:59.073Z,13.97
2023-04-09T04:34:59.066Z,14.07
2023-04-09T04:35:59.087Z,14.17
2023-04-09T04:36:59.064Z,14.26
2023-04-09T04:37:59.067Z,14.07
2023-04-09T04:38:59.082Z,14.07
2023-04-09T04:39:59.094Z,14.26
2023-04-09T04:40:59.067Z,14.07
2023-04-09T04:41:59.084Z,14.17
2023-04-09T04:42:59.062Z,14.07
2023-04-09T04:43:59.071Z,14.16
2023-04-09T04:44:59.059Z,14.17
2023-04-09T04:45:59.176Z,14.06
2023-04-09T04:46:59.061Z,14.25
2023-04-09T04:47:59.133Z,14.07
2023-04-09T04:48:59.055Z,14.16
2023-04-09T04:49:59.061Z,14.25
2023-04-09T04:50:59.054Z,14.25
2023-04-09T04:51:59.060Z,14.17
2023-04-09T04:52:59.052Z,14.16
2023-04-09T04:53:59.061Z,14.25
2023-04-09T04:54:59.058Z,14.06
2023-04-09T04:55:59.082Z,14.06
2023-04-09T04:56:59.055Z,14.06
2023-04-09T04:57:59.070Z,14.06
2023-04-09T04:58:59.051Z,14.06
2023-04-09T04:59:59.064Z,14.06
2023-04-09T05:00:59.141Z,14.06
2023-04-09T05:01:59.106Z,14.06
2023-04-09T05:02:59.327Z,14.06
2023-04-09T05:03:59.169Z,14.06
2023-04-09T05:04:59.047Z,14.06
2023-04-09T05:05:59.060Z,14.06
2023-04-09T05:06:59.050Z,14.16
2023-04-09T05:07:59.062Z,13.96
2023-04-09T05:08:59.047Z,14.06
2023-04-09T05:09:59.050Z,14.06
2023-04-09T05:10:59.042Z,14.06
2023-04-09T05:11:59.073Z,14.06
2023-04-09T05:12:59.042Z,13.96
2023-04-09T05:13:59.053Z,14.06
2023-04-09T05:14:59.041Z,13.96
2023-04-09T05:15:59.052Z,14.06
2023-04-09T05:16:59.174Z,14.06
2023-04-09T05:17:59.068Z,13.96
2023-04-09T05:18:59.044Z,14.06
2023-04-09T05:19:59.036Z,14.06
2023-04-09T05:20:59.043Z,14.06
2023-04-09T05:21:59.037Z,14.06
2023-04-09T05:22:59.042Z,14.06
2023-04-09T05:23:59.037Z,14.06
2023-04-09T05:24:59.044Z,14.06
2023-04-09T05:25:59.038Z,14.06
2023-04-09T05:26:59.039Z,13.96
2023-04-09T05:27:59.058Z,14.06
2023-04-09T05:28:59.038Z,13.96
2023-04-09T05:30:00.674Z,14.06
2023-04-09T05:30:59.107Z,13.96
2023-04-09T05:31:59.031Z,14.06
2023-04-09T05:32:59.087Z,14.06
2023-04-09T05:33:59.029Z,14.06
2023-04-09T05:34:59.036Z,14.06
2023-04-09T05:35:59.078Z,14.06
2023-04-09T05:36:59.036Z,14.06
2023-04-09T05:37:59.031Z,14.06
2023-04-09T05:38:59.045Z,14.06
2023-04-09T05:39:59.038Z,14.25
2023-04-09T05:40:59.037Z,14.16
2023-04-09T05:41:59.051Z,14.16
2023-04-09T05:42:59.034Z,14.06
2023-04-09T05:44:00.808Z,14.16
2023-04-09T05:44:59.036Z,14.16
2023-04-09T05:45:59.056Z,14.06
2023-04-09T05:46:59.051Z,14.25
2023-04-09T05:47:59.040Z,14.16
2023-04-09T05:48:59.035Z,14.06
2023-04-09T05:49:59.028Z,14.16
2023-04-09T05:51:00.466Z,14.17
2023-04-09T05:51:59.024Z,14.25
2023-04-09T05:52:59.039Z,14.26
2023-04-09T05:53:59.023Z,14.26
2023-04-09T05:54:59.028Z,14.07
2023-04-09T05:55:59.030Z,14.26
2023-04-09T05:56:59.028Z,14.25
2023-04-09T05:57:59.032Z,14.16
2023-04-09T05:58:59.030Z,14.07
2023-04-09T05:59:59.041Z,14.07
2023-04-09T06:00:59.025Z,14.06
2023-04-09T06:01:59.065Z,14.06
2023-04-09T06:02:59.080Z,14.06
2023-04-09T06:03:59.466Z,13.97
2023-04-09T06:04:59.168Z,14.06
2023-04-09T06:05:59.016Z,14.16
2023-04-09T06:06:59.023Z,14.17
2023-04-09T06:07:59.017Z,14.17
2023-04-09T06:08:59.025Z,14.07
2023-04-09T06:09:59.013Z,14.17
2023-04-09T06:10:59.021Z,14.07
2023-04-09T06:11:59.012Z,14.16
2023-04-09T06:12:59.020Z,14.16
2023-04-09T06:13:59.012Z,14.17
2023-04-09T06:14:59.017Z,14.07
2023-04-09T06:15:59.098Z,14.07
2023-04-09T06:16:59.018Z,14.16
2023-04-09T06:17:59.525Z,14.17
2023-04-09T06:18:59.016Z,14.07
2023-04-09T06:19:59.010Z,14.07
2023-04-09T06:20:59.016Z,14.06
2023-04-09T06:21:59.024Z,14.17
2023-04-09T06:22:59.015Z,14.17
2023-04-09T06:23:59.007Z,14.07
2023-04-09T06:24:59.023Z,14.07
2023-04-09T06:25:59.008Z,14.07
2023-04-09T06:26:59.014Z,14.17
2023-04-09T06:27:59.007Z,14.45
2023-04-09T06:28:59.012Z,14.17
2023-04-09T06:29:59.010Z,14.45
2023-04-09T06:30:59.049Z,14.07
2023-04-09T06:31:59.029Z,14.26
2023-04-09T06:32:59.057Z,14.36
2023-04-09T06:33:59.004Z,14.17
2023-04-09T06:34:59.014Z,14.26
2023-04-09T06:35:59.030Z,14.45
2023-04-09T06:36:59.011Z,14.26
2023-04-09T06:37:59.000Z,14.07
2023-04-09T06:38:59.036Z,14.17
2023-04-09T06:40:01.389Z,14.45
2023-04-09T06:40:59.010Z,14.17
2023-04-09T06:41:58.999Z,14.07
2023-04-09T06:42:59.008Z,14.07
2023-04-09T06:43:58.996Z,14.26
2023-04-09T06:44:59.004Z,14.17
2023-04-09T06:45:58.998Z,14.17
2023-04-09T06:46:59.166Z,14.07
2023-04-09T06:47:59.103Z,14.07
2023-04-09T06:48:59.005Z,14.07
2023-04-09T06:49:58.994Z,14.26
2023-04-09T06:50:59.000Z,14.07
2023-04-09T06:51:58.992Z,14.17
2023-04-09T06:52:59.011Z,14.07
2023-04-09T06:53:59.041Z,14.17
2023-04-09T06:54:59.015Z,14.36
2023-04-09T06:55:58.992Z,14.45
2023-04-09T06:56:58.998Z,14.36
2023-04-09T06:57:58.990Z,14.45
2023-04-09T06:58:58.996Z,14.36
2023-04-09T06:59:59.287Z,14.36
2023-04-09T07:00:59.001Z,14.36
2023-04-09T07:01:59.089Z,14.17
2023-04-09T07:02:59.215Z,14.45
2023-04-09T07:03:59.089Z,14.36
2023-04-09T07:04:58.994Z,14.07
2023-04-09T07:05:58.999Z,14.26
2023-04-09T07:06:58.992Z,14.36
2023-04-09T07:07:58.997Z,14.36
2023-04-09T07:08:58.997Z,14.07
2023-04-09T07:09:58.986Z,14.26
2023-04-09T07:10:58.993Z,14.26
2023-04-09T07:11:58.983Z,13.97
2023-04-09T07:12:58.991Z,13.97
2023-04-09T07:13:58.984Z,13.97
2023-04-09T07:14:58.990Z,13.97
2023-04-09T07:15:59.009Z,14.17
2023-04-09T07:16:58.991Z,14.17
2023-04-09T07:17:59.015Z,14.07
2023-04-09T07:18:59.001Z,13.97
2023-04-09T07:19:59.011Z,14.07
2023-04-09T07:20:59.454Z,14.17
2023-04-09T07:21:58.982Z,14.17
2023-04-09T07:22:58.986Z,14.17
2023-04-09T07:23:58.979Z,14.26
2023-04-09T07:24:58.985Z,14.17
2023-04-09T07:25:58.981Z,14.17
2023-04-09T07:26:58.986Z,14.17
2023-04-09T07:27:58.978Z,14.17
2023-04-09T07:28:58.984Z,14.07
2023-04-09T07:29:58.980Z,14.17
2023-04-09T07:30:59.114Z,14.17
2023-04-09T07:31:59.142Z,14.07
2023-04-09T07:32:59.039Z,14.17
2023-04-09T07:33:58.975Z,14.07
2023-04-09T07:34:58.983Z,14.07
2023-04-09T07:35:59.032Z,14.07
2023-04-09T07:36:58.980Z,14.07
2023-04-09T07:37:58.973Z,13.97
2023-04-09T07:38:58.980Z,14.26
2023-04-09T07:39:58.970Z,14.17
2023-04-09T07:40:59.000Z,14.17
2023-04-09T07:41:58.974Z,14.17
2023-04-09T07:42:58.985Z,14.26
2023-04-09T07:43:58.979Z,14.07
2023-04-09T07:44:58.984Z,14.17
2023-04-09T07:45:58.972Z,14.26
2023-04-09T07:46:59.028Z,14.17
2023-04-09T07:47:59.028Z,14.26
2023-04-09T07:48:58.976Z,13.97
2023-04-09T07:49:58.969Z,14.26
2023-04-09T07:50:58.975Z,14.26
2023-04-09T07:51:58.992Z,13.97
2023-04-09T07:52:58.984Z,14.26
2023-04-09T07:53:58.968Z,14.17
2023-04-09T07:54:58.988Z,14.17
2023-04-09T07:55:58.967Z,14.17
2023-04-09T07:56:58.988Z,14.26
2023-04-09T07:57:58.987Z,14.26
2023-04-09T07:58:58.997Z,14.26
2023-04-09T07:59:58.971Z,14.26
2023-04-09T08:00:58.976Z,14.26
2023-04-09T08:01:59.089Z,13.97
2023-04-09T08:02:59.147Z,14.26
2023-04-09T08:03:59.141Z,14.17
2023-04-09T08:04:59.009Z,14.26
2023-04-09T08:05:58.967Z,14.26
2023-04-09T08:06:58.972Z,14.26
2023-04-09T08:07:58.989Z,14.17
2023-04-09T08:08:58.975Z,14.26
2023-04-09T08:09:58.969Z,14.26
2023-04-09T08:10:58.974Z,14.26
2023-04-09T08:11:58.962Z,14.36
2023-04-09T08:12:58.969Z,14.26
2023-04-09T08:13:58.964Z,14.17
2023-04-09T08:14:58.968Z,14.17
2023-04-09T08:15:58.998Z,14.26
2023-04-09T08:16:58.972Z,14.17
2023-04-09T08:17:59.108Z,14.26
2023-04-09T08:18:58.967Z,14.26
2023-04-09T08:19:58.965Z,14.17
2023-04-09T08:20:58.964Z,14.26
2023-04-09T08:21:58.956Z,14.26
2023-04-09T08:22:58.965Z,14.26
2023-04-09T08:23:58.989Z,14.07
2023-04-09T08:25:01.483Z,14.17
2023-04-09T08:25:58.959Z,14.26
2023-04-09T08:26:58.968Z,13.97
2023-04-09T08:27:58.956Z,14.17
2023-04-09T08:28:58.970Z,14.26
2023-04-09T08:29:58.959Z,14.07
2023-04-09T08:30:58.965Z,14.17
2023-04-09T08:31:58.980Z,14.26
2023-04-09T08:32:59.083Z,14.17
2023-04-09T08:33:58.957Z,14.26
2023-04-09T08:34:58.968Z,14.07
2023-04-09T08:35:59.674Z,14.07
2023-04-09T08:36:58.981Z,14.26
2023-04-09T08:37:58.952Z,14.26
2023-04-09T08:38:58.959Z,14.26
2023-04-09T08:39:58.977Z,14.07
2023-04-09T08:40:58.963Z,14.26
2023-04-09T08:41:58.952Z,13.97
2023-04-09T08:42:58.971Z,14.07
2023-04-09T08:43:59.768Z,14.17
2023-04-09T08:44:58.967Z,14.07
2023-04-09T08:45:59.006Z,14.17
2023-04-09T08:46:59.781Z,14.26
2023-04-09T08:47:59.002Z,14.17
2023-04-09T08:48:58.970Z,14.26
2023-04-09T08:49:58.953Z,14.26
2023-04-09T08:50:58.954Z,14.26
2023-04-09T08:51:58.952Z,14.17
2023-04-09T08:52:58.962Z,14.07
2023-04-09T08:54:00.200Z,14.26
2023-04-09T08:54:59.019Z,14.17
2023-04-09T08:55:58.967Z,14.26
2023-04-09T08:56:58.955Z,14.26
2023-04-09T08:57:58.944Z,14.17
2023-04-09T08:58:58.981Z,14.17
2023-04-09T08:59:58.954Z,14.26
2023-04-09T09:00:58.989Z,14.17
2023-04-09T09:01:59.106Z,14.07
2023-04-09T09:02:59.068Z,14.17
2023-04-09T09:03:59.045Z,13.97
2023-04-09T09:04:58.947Z,14.26
2023-04-09T09:05:58.945Z,14.17
2023-04-09T09:06:58.948Z,14.26
2023-04-09T09:07:58.946Z,14.26
2023-04-09T09:08:58.952Z,14.17
2023-04-09T09:09:58.938Z,14.17
2023-04-09T09:10:58.944Z,14.17
2023-04-09T09:11:58.962Z,14.26
2023-04-09T09:12:58.947Z,14.17
2023-04-09T09:13:58.947Z,14.17
2023-04-09T09:14:58.943Z,14.17
2023-04-09T09:15:58.933Z,14.17
2023-04-09T09:16:58.995Z,14.17
2023-04-09T09:17:58.968Z,14.26
2023-04-09T09:18:59.138Z,14.17
2023-04-09T09:19:58.934Z,14.07
2023-04-09T09:20:58.940Z,13.97
2023-04-09T09:21:58.967Z,14.07
2023-04-09T09:22:58.940Z,14.26
2023-04-09T09:23:58.945Z,14.07
2023-04-09T09:24:58.958Z,14.07
2023-04-09T09:25:58.947Z,14.17
2023-04-09T09:26:58.935Z,14.17
2023-04-09T09:27:58.953Z,14.26
2023-04-09T09:28:58.933Z,14.26
2023-04-09T09:29:58.929Z,14.07
2023-04-09T09:30:58.956Z,14.17
2023-04-09T09:31:58.929Z,14.26
2023-04-09T09:32:58.985Z,14.17
2023-04-09T09:33:58.931Z,14.17
2023-04-09T09:34:58.928Z,14.17
2023-04-09T09:35:58.969Z,14.17
2023-04-09T09:36:58.930Z,14.07
2023-04-09T09:37:58.938Z,14.17
2023-04-09T09:38:58.933Z,13.87
2023-04-09T09:39:58.948Z,14.07
2023-04-09T09:40:58.926Z,14.17
2023-04-09T09:41:58.935Z,13.97
2023-04-09T09:42:58.929Z,14.07
2023-04-09T09:43:58.968Z,13.97
2023-04-09T09:44:58.947Z,13.97
2023-04-09T09:45:58.963Z,13.97
2023-04-09T09:46:58.940Z,13.97
2023-04-09T09:47:58.968Z,13.97
2023-04-09T09:48:58.932Z,13.97
2023-04-09T09:49:58.937Z,13.97
2023-04-09T09:50:58.931Z,13.87
2023-04-09T09:51:58.932Z,13.97
2023-04-09T09:52:58.930Z,13.97
2023-04-09T09:53:58.934Z,13.87
2023-04-09T09:54:58.921Z,13.87
2023-04-09T09:55:58.932Z,13.87
2023-04-09T09:56:58.924Z,13.97
2023-04-09T09:57:58.931Z,13.87
2023-04-09T09:58:58.932Z,13.87
2023-04-09T09:59:58.953Z,13.87
2023-04-09T10:00:59.002Z,13.87
2023-04-09T10:01:59.128Z,13.97
2023-04-09T10:02:59.075Z,13.87
2023-04-09T10:03:58.949Z,13.87
2023-04-09T10:04:58.928Z,13.87
2023-04-09T10:05:58.943Z,13.87
2023-04-09T10:06:58.919Z,13.87
2023-04-09T10:07:58.931Z,13.97
2023-04-09T10:08:58.919Z,13.97
2023-04-09T10:09:58.924Z,13.97
2023-04-09T10:10:58.922Z,13.87
2023-04-09T10:11:58.930Z,13.97
2023-04-09T10:12:58.916Z,13.97
2023-04-09T10:13:58.924Z,13.97
2023-04-09T10:14:58.915Z,14.07
2023-04-09T10:15:59.005Z,13.78
2023-04-09T10:16:58.915Z,13.78
2023-04-09T10:17:58.959Z,13.87
2023-04-09T10:18:58.914Z,13.78
2023-04-09T10:19:58.923Z,13.87
2023-04-09T10:20:58.923Z,13.78
2023-04-09T10:21:58.918Z,13.87
2023-04-09T10:22:58.914Z,13.68
2023-04-09T10:23:58.918Z,13.78
2023-04-09T10:24:58.910Z,13.78
2023-04-09T10:25:58.921Z,13.78
2023-04-09T10:26:58.909Z,13.87
2023-04-09T10:27:58.917Z,13.68
2023-04-09T10:28:58.921Z,13.78
2023-04-09T10:29:58.916Z,13.78
2023-04-09T10:30:58.921Z,13.68
2023-04-09T10:31:58.945Z,13.87
2023-04-09T10:32:58.950Z,13.78
2023-04-09T10:33:58.918Z,13.87
2023-04-09T10:34:58.906Z,13.78
2023-04-09T10:35:58.950Z,13.87
2023-04-09T10:36:58.910Z,13.87
2023-04-09T10:37:58.911Z,13.78
2023-04-09T10:38:58.905Z,13.87
2023-04-09T10:39:58.914Z,13.97
2023-04-09T10:40:58.926Z,13.87
2023-04-09T10:41:58.918Z,13.87
2023-04-09T10:42:58.904Z,13.87
2023-04-09T10:43:58.912Z,13.78
2023-04-09T10:44:58.913Z,13.78
2023-04-09T10:45:58.913Z,13.68
2023-04-09T10:46:59.023Z,13.87
2023-04-09T10:47:58.963Z,13.78
2023-04-09T10:48:58.905Z,13.87
2023-04-09T10:49:58.910Z,13.78
2023-04-09T10:50:58.911Z,13.78
2023-04-09T10:51:58.909Z,13.87
2023-04-09T10:52:58.910Z,13.78
2023-04-09T10:53:58.908Z,13.78
2023-04-09T10:54:58.900Z,13.68
2023-04-09T10:55:58.914Z,13.87
2023-04-09T10:56:58.907Z,13.87
2023-04-09T10:57:58.907Z,13.87
2023-04-09T10:58:58.902Z,13.78
2023-04-09T10:59:58.910Z,13.78
2023-04-09T11:00:58.899Z,13.68
2023-04-09T11:01:59.019Z,13.68
2023-04-09T11:02:58.996Z,13.87
2023-04-09T11:03:58.929Z,13.68
2023-04-09T11:04:59.001Z,13.58
2023-04-09T11:05:58.907Z,13.68
2023-04-09T11:06:58.896Z,13.68
2023-04-09T11:07:58.906Z,13.58
2023-04-09T11:08:58.897Z,13.78
2023-04-09T11:09:58.913Z,13.58
2023-04-09T11:10:58.904Z,13.68
2023-04-09T11:11:58.903Z,13.58
2023-04-09T11:12:58.948Z,13.68
2023-04-09T11:13:58.904Z,13.58
2023-04-09T11:14:58.897Z,13.58
2023-04-09T11:15:58.989Z,13.58
2023-04-09T11:16:58.899Z,13.48
2023-04-09T11:17:58.945Z,13.48
2023-04-09T11:18:58.889Z,13.48
2023-04-09T11:19:59.024Z,13.48
2023-04-09T11:20:58.892Z,13.48
2023-04-09T11:21:58.896Z,13.58
2023-04-09T11:22:58.888Z,13.58
2023-04-09T11:23:58.894Z,13.58
2023-04-09T11:24:58.893Z,13.68
2023-04-09T11:25:58.906Z,13.78
2023-04-09T11:26:58.898Z,13.29
2023-04-09T11:27:58.892Z,13.39
2023-04-09T11:28:58.888Z,13.58
2023-04-09T11:29:58.891Z,13.58
2023-04-09T11:30:58.891Z,13.20
2023-04-09T11:31:58.939Z,13.29
2023-04-09T11:32:58.924Z,13.48
2023-04-09T11:33:58.891Z,13.20
2023-04-09T11:34:58.882Z,13.29
2023-04-09T11:35:58.996Z,13.20
2023-04-09T11:36:58.882Z,13.10
2023-04-09T11:37:58.890Z,13.29
2023-04-09T11:38:58.882Z,13.20
2023-04-09T11:39:58.891Z,13.20
2023-04-09T11:40:58.885Z,13.20
2023-04-09T11:41:58.904Z,13.20
2023-04-09T11:42:58.877Z,13.20
2023-04-09T11:43:58.892Z,13.29
2023-04-09T11:44:58.882Z,13.20
2023-04-09T11:45:58.884Z,13.20
2023-04-09T11:46:58.922Z,13.39
2023-04-09T11:47:58.947Z,13.10
2023-04-09T11:48:58.884Z,13.00
2023-04-09T11:49:58.884Z,13.10
2023-04-09T11:50:58.879Z,13.00
2023-04-09T11:51:58.907Z,13.10
2023-04-09T11:52:58.878Z,13.10
2023-04-09T11:53:58.883Z,13.39
2023-04-09T11:54:58.875Z,13.10
2023-04-09T11:55:58.883Z,13.29
2023-04-09T11:56:58.879Z,13.29
2023-04-09T11:57:58.884Z,13.29
2023-04-09T11:58:58.878Z,13.29
2023-04-09T11:59:58.881Z,13.29
2023-04-09T12:00:58.940Z,13.29
2023-04-09T12:01:58.996Z,13.39
2023-04-09T12:02:59.158Z,13.39
2023-04-09T12:03:59.078Z,13.29
2023-04-09T12:04:58.887Z,13.29
2023-04-09T12:05:58.883Z,13.10
2023-04-09T12:06:58.979Z,13.10
2023-04-09T12:07:58.902Z,13.00
2023-04-09T12:08:58.875Z,13.20
2023-04-09T12:09:58.889Z,13.10
2023-04-09T12:10:58.871Z,12.81
2023-04-09T12:11:58.879Z,12.90
2023-04-09T12:12:58.871Z,12.90
2023-04-09T12:13:58.877Z,12.81
2023-04-09T12:14:58.891Z,13.00
2023-04-09T12:15:59.238Z,13.00
2023-04-09T12:16:58.953Z,13.20
2023-04-09T12:17:58.887Z,13.20
2023-04-09T12:18:58.869Z,13.20
2023-04-09T12:19:58.879Z,13.10
2023-04-09T12:20:58.870Z,13.00
2023-04-09T12:21:58.884Z,13.20
2023-04-09T12:22:58.867Z,13.20
2023-04-09T12:23:58.897Z,13.20
2023-04-09T12:24:58.867Z,13.10
2023-04-09T12:25:58.875Z,12.90
2023-04-09T12:26:58.872Z,12.90
2023-04-09T12:27:58.872Z,12.71
2023-04-09T12:28:58.868Z,12.90
2023-04-09T12:29:58.873Z,12.90
2023-04-09T12:30:58.868Z,12.81
2023-04-09T12:31:58.951Z,13.00
2023-04-09T12:32:58.959Z,12.90
2023-04-09T12:33:58.871Z,12.81
2023-04-09T12:34:58.860Z,12.71
2023-04-09T12:35:58.889Z,12.90
2023-04-09T12:36:58.866Z,12.71
2023-04-09T12:37:58.868Z,12.71
2023-04-09T12:38:58.862Z,12.71
2023-04-09T12:39:58.891Z,12.71
2023-04-09T12:40:58.862Z,12.90
2023-04-09T12:41:58.872Z,12.90
2023-04-09T12:42:58.870Z,12.81
2023-04-09T12:43:58.869Z,12.90
2023-04-09T12:44:58.861Z,12.51
2023-04-09T12:45:58.933Z,12.90
2023-04-09T12:46:58.858Z,12.90
2023-04-09T12:47:58.926Z,12.71
2023-04-09T12:48:58.871Z,12.71
2023-04-09T12:49:58.865Z,12.71
2023-04-09T12:50:58.854Z,12.90
2023-04-09T12:51:58.862Z,12.81
2023-04-09T12:52:58.866Z,12.81